AirNav   Air Wisconsin Up To $57,000 Bonus
 
 999 users online  

1MN9 Sanford Jackson Medical Center Heliport
Jackson, Minnesota, USA

GOING TO JACKSON?


FAA INFORMATION EFFECTIVE 15 JULY 2021

Location

FAA Identifier: 1MN9
Lat/Long: 43-37-29.3500N 095-00-14.2200W
43-37.489167N 095-00.237000W
43.6248194,-95.0039500
(estimated)
Elevation: 1450 ft. / 442 m (estimated)
Variation: 04E (1995)
Time zone: UTC -5 (UTC -6 during Standard Time)
Zip code: 56143

Heliport Operations

Heliport use: Private use. Permission required prior to landing
Activation date: 08/1999
Control tower: no
ARTCC: MINNEAPOLIS CENTER
FSS: PRINCETON FLIGHT SERVICE STATION
Attendance: CONTINUOUS
Wind indicator: lighted
Segmented circle: no

Heliport Communications

WX AWOS-3 at MJQ (1.7 nm NE): 118.1 (507-847-5810)
WX ASOS at EST (17 nm SE): 121.425 (712-362-7250)
WX AWOS-3 at MWM (18 nm N): 118.525 (507-831-1833)

Nearby radio navigation aids

VOR radial/distance  VOR name  Freq  Var
OTGr085/25.1WORTHINGTON VOR/DME110.6008E
SPWr012/29.1SPENCER VOR/DME110.0005E

 
NDB name  Hdg/Dist  Freq  Var  ID
PUFF324/20.134501EPUF .--. ..- ..-.
EMMETSBURG334/34.041004EEGQ . --. --.-

Heliport Services

Runway Information

Helipad H1

Dimensions: 45 x 45 ft. / 14 x 14 m
Surface: concrete
Latitude: 43-37.489167N
Longitude: 095-00.237000W
Elevation: 1450.0 ft.
Traffic pattern: leftleft

Heliport Ownership and Management from official FAA records

Ownership: Privately-owned
Owner: SANFORD HEALTH
1305 W 18TH STREET
SIOUX FALLS, SD 57105
Phone 507-847-4410
Manager: RUSSELL HALVERSON
1430 N HWY
JACKSON, MN 56143
Phone (507) 822-6486

Additional Remarks

A52-H1 AI FT BLDG 95 FT SW OF HELIPAD.
FOR CD CTC MINNEAPOLIS ARTCC AT 651-463-5588.

Instrument Procedures

There are no published instrument procedures at 1MN9.

Some nearby airports with instrument procedures:

KMJQ - Jackson Municipal Airport (2 nm NE)
KEST - Estherville Municipal Airport (17 nm SE)
KMWM - Windom Municipal Airport (18 nm N)
4D8 - Fuller Airport (19 nm S)
KOTG - Worthington Municipal Airport (25 nm W)
 
Loc | Ops | Rwys | IFR | FBO | Links
Com | Nav | Svcs | Stats | Notes
Area around 1MN9 (Sanford Jackson Medical Center Heliport)
 
Road maps at: MapQuest Bing Google
 
Aerial photo
No photo
 
Sectional chart

 
Airport distance calculator
Flying to Sanford Jackson Medical Center Heliport? Find the distance to fly.

From to 1MN9

Sunrise and sunset
Times for 29-Jul-2021
 Local
(UTC-5)
 Zulu
(UTC)
Morning civil twilight05:3410:34
Sunrise06:0711:07
Sunset20:4601:46
Evening civil twilight21:1902:19

Current date and time
Zulu (UTC)  29-Jul-2021 12:32:38
Local (UTC-5)  29-Jul-2021 07:32:38
 
METAR
KMJQ 
2nm E 
291215Z AUTO 35006KT 7SM CLR 21/20 A3005 RMK AO2 PWINO
KMWM 
17nm N 
291215Z AUTO 34009KT 10SM CLR 20/18 A3005 RMK AO2
KEST 
17nm SE 
291152Z AUTO 35009KT 6SM BR CLR 24/23 A3001 RMK AO2 SLP152 60000 T02390228 10289 20239 53012 $
TAF
NOTAMs
Click for the latest NOTAMs
NOTAMs are issued by the DoD/FAA and will open in a separate window not controlled by AirNav.

 

 
 

Would you like to see your business listed on this page?

 If your business provides an interesting product or service to pilots, flight crews, aircraft, or users of the Sanford Jackson Medical Center Heliport, you should consider listing it here.  To start the listing process, click on the button below
 
Add a business
 

Other Pages about Sanford Jackson Medical Center Heliport

Update a link
 
Copyright © AirNav, LLC. All rights reserved. Privacy Policy  Contact